createdAt,value
2022-08-10T00:01:53.735Z,14.80
2022-08-10T00:04:23.558Z,14.80
2022-08-10T00:06:53.564Z,14.70
2022-08-10T00:09:22.353Z,14.70
2022-08-10T00:11:51.093Z,14.60
2022-08-10T00:14:19.991Z,14.60
2022-08-10T00:16:50.061Z,14.60
2022-08-10T00:19:18.631Z,14.60
2022-08-10T00:21:48.092Z,14.60
2022-08-10T00:24:16.969Z,14.50
2022-08-10T00:27:52.934Z,14.60
2022-08-10T00:29:34.490Z,14.60
2022-08-10T00:32:04.931Z,14.50
2022-08-10T00:34:34.813Z,14.60
2022-08-10T00:37:03.591Z,14.60
2022-08-10T00:39:36.085Z,14.50
2022-08-10T00:42:08.262Z,14.50
2022-08-10T00:44:38.930Z,14.60
2022-08-10T00:47:36.183Z,14.80
2022-08-10T00:49:59.263Z,14.80
2022-08-10T00:52:31.389Z,14.90
2022-08-10T00:55:03.013Z,15.00
2022-08-10T00:57:32.118Z,15.00
2022-08-10T01:00:01.062Z,15.00
2022-08-10T01:02:33.375Z,15.10
2022-08-10T01:05:05.663Z,15.00
2022-08-10T01:07:55.149Z,14.90
2022-08-10T01:10:38.604Z,14.80
2022-08-10T01:13:11.281Z,14.70
2022-08-10T01:15:50.284Z,14.60
2022-08-10T01:18:27.961Z,14.60
2022-08-10T01:21:18.132Z,14.50
2022-08-10T01:24:25.124Z,14.50
2022-08-10T01:27:27.487Z,14.50
2022-08-10T01:30:04.773Z,14.40
2022-08-10T01:32:43.551Z,14.40
2022-08-10T01:35:16.597Z,14.30
2022-08-10T01:37:52.386Z,14.30
2022-08-10T01:40:26.992Z,14.20
2022-08-10T01:43:08.455Z,14.10
2022-08-10T01:45:45.474Z,14.10
2022-08-10T01:48:29.386Z,14.00
2022-08-10T01:51:04.424Z,13.90
2022-08-10T01:53:41.146Z,13.90
2022-08-10T01:56:13.138Z,13.80
2022-08-10T01:58:43.153Z,13.80
2022-08-10T02:01:17.344Z,13.70
2022-08-10T02:04:01.364Z,13.80
2022-08-10T02:06:37.634Z,13.80
2022-08-10T02:09:09.441Z,14.00
2022-08-10T02:11:55.900Z,14.10
2022-08-10T02:14:33.579Z,14.10
2022-08-10T02:17:07.665Z,14.30
2022-08-10T02:19:37.702Z,14.30
2022-08-10T02:22:35.254Z,14.20
2022-08-10T02:24:58.840Z,14.10
2022-08-10T02:27:29.425Z,14.00
2022-08-10T02:30:00.412Z,13.80
2022-08-10T02:32:36.414Z,13.80
2022-08-10T02:35:18.635Z,13.70
2022-08-10T02:37:54.306Z,13.70
2022-08-10T02:45:15.497Z,13.60
2022-08-10T02:45:17.700Z,13.60
2022-08-10T02:46:18.328Z,13.50
2022-08-10T02:48:59.451Z,13.50
2022-08-10T02:52:06.781Z,13.40
2022-08-10T02:54:28.352Z,13.40
2022-08-10T02:56:59.850Z,13.30
2022-08-10T02:59:40.158Z,13.20
2022-08-10T03:02:27.229Z,13.20
2022-08-10T03:05:04.472Z,13.10
2022-08-10T03:07:43.087Z,13.10
2022-08-10T03:10:17.655Z,13.00
2022-08-10T03:12:50.718Z,12.90
2022-08-10T03:15:22.140Z,12.90
2022-08-10T03:17:58.031Z,12.90
2022-08-10T03:20:36.738Z,12.80
2022-08-10T03:23:11.718Z,12.80
2022-08-10T03:25:40.684Z,12.80
2022-08-10T03:28:10.452Z,12.80
2022-08-10T03:30:46.949Z,12.70
2022-08-10T03:33:16.940Z,12.80
2022-08-10T03:36:43.310Z,12.80
2022-08-10T03:38:35.960Z,12.70
2022-08-10T03:41:07.199Z,12.70
2022-08-10T03:43:36.533Z,12.70
2022-08-10T03:46:09.671Z,12.80
2022-08-10T03:48:49.422Z,12.70
2022-08-10T03:51:21.160Z,12.80
2022-08-10T03:54:05.496Z,12.90
2022-08-10T03:56:41.270Z,12.90
2022-08-10T03:59:13.614Z,12.90
2022-08-10T04:02:52.870Z,13.00
2022-08-10T04:04:31.960Z,13.00
2022-08-10T04:07:03.834Z,13.00
2022-08-10T04:09:53.681Z,13.00
2022-08-10T04:12:22.812Z,13.00
2022-08-10T04:14:53.219Z,13.00
2022-08-10T04:17:56.819Z,13.10
2022-08-10T04:20:19.736Z,13.10
2022-08-10T04:22:53.718Z,13.10
2022-08-10T04:25:24.091Z,13.10
2022-08-10T04:27:54.050Z,13.10
2022-08-10T04:30:23.020Z,13.10
2022-08-10T04:32:55.442Z,13.10
2022-08-10T04:35:25.349Z,13.10
2022-08-10T04:37:58.008Z,13.20
2022-08-10T04:40:30.152Z,13.20
2022-08-10T04:43:11.251Z,13.20
2022-08-10T04:45:47.816Z,13.20
2022-08-10T04:48:40.233Z,13.30
2022-08-10T04:51:17.044Z,13.30
2022-08-10T04:54:04.981Z,13.30
2022-08-10T04:56:38.031Z,13.30
2022-08-10T04:59:07.848Z,13.30
2022-08-10T05:02:27.069Z,13.40
2022-08-10T05:04:36.469Z,13.40
2022-08-10T05:07:09.432Z,13.40
2022-08-10T05:10:04.084Z,13.50
2022-08-10T05:12:29.636Z,13.60
2022-08-10T05:14:58.300Z,13.70
2022-08-10T05:17:26.960Z,13.90
2022-08-10T05:20:05.119Z,14.00
2022-08-10T05:22:39.608Z,14.20
2022-08-10T05:25:12.406Z,14.30
2022-08-10T05:27:41.659Z,14.50
2022-08-10T05:30:13.699Z,14.50
2022-08-10T05:32:56.226Z,14.70
2022-08-10T05:35:28.795Z,14.70
2022-08-10T05:38:18.268Z,14.80
2022-08-10T05:40:49.274Z,15.00
2022-08-10T05:43:19.494Z,15.10
2022-08-10T05:46:19.638Z,15.20
2022-08-10T05:48:41.702Z,15.30
2022-08-10T05:51:28.558Z,15.40
2022-08-10T05:54:01.893Z,15.50
2022-08-10T05:56:55.326Z,15.50
2022-08-10T06:00:10.977Z,15.60
2022-08-10T06:02:30.898Z,15.70
2022-08-10T06:05:08.883Z,15.80
2022-08-10T06:07:41.234Z,15.90
2022-08-10T06:10:31.024Z,16.10
2022-08-10T06:13:30.781Z,16.20
2022-08-10T06:16:07.779Z,16.30
2022-08-10T06:18:38.117Z,16.40
2022-08-10T06:21:09.702Z,16.50
2022-08-10T06:23:39.576Z,16.60
2022-08-10T06:26:14.122Z,16.70
2022-08-10T06:28:56.062Z,16.80
2022-08-10T06:31:48.265Z,16.90
2022-08-10T06:34:24.169Z,17.00
2022-08-10T06:36:54.559Z,17.10
2022-08-10T06:39:33.511Z,17.10
2022-08-10T06:42:16.535Z,17.20
2022-08-10T06:45:04.197Z,17.30
2022-08-10T06:47:40.487Z,17.40
2022-08-10T06:50:15.498Z,17.50
2022-08-10T06:53:05.076Z,17.60
2022-08-10T06:55:50.090Z,17.70
2022-08-10T06:58:26.964Z,17.80
2022-08-10T07:00:58.230Z,17.90
2022-08-10T07:03:33.147Z,17.90
2022-08-10T07:06:02.845Z,18.10
2022-08-10T07:08:34.028Z,18.10
2022-08-10T07:11:06.691Z,18.20
2022-08-10T07:14:15.527Z,18.30
2022-08-10T07:16:32.678Z,18.40
2022-08-10T07:19:02.961Z,18.60
2022-08-10T07:21:32.699Z,18.70
2022-08-10T07:24:04.943Z,18.90
2022-08-10T07:26:35.587Z,19.00
2022-08-10T07:29:05.309Z,19.10
2022-08-10T07:31:56.872Z,19.20
2022-08-10T07:34:29.887Z,19.30
2022-08-10T07:37:03.202Z,19.40
2022-08-10T07:40:03.821Z,19.50
2022-08-10T07:42:25.758Z,19.50
2022-08-10T07:44:54.578Z,19.80
2022-08-10T07:47:53.207Z,19.90
2022-08-10T07:50:25.706Z,20.20
2022-08-10T07:52:56.867Z,20.30
2022-08-10T07:56:05.800Z,20.30
2022-08-10T07:58:17.478Z,20.50
2022-08-10T08:00:47.767Z,20.60
2022-08-10T08:03:21.303Z,20.90
2022-08-10T08:06:02.832Z,21.20
2022-08-10T08:08:34.888Z,21.40
2022-08-10T08:11:05.388Z,21.70
2022-08-10T08:13:35.578Z,22.00
2022-08-10T08:16:20.841Z,22.60
2022-08-10T08:19:28.239Z,23.30
2022-08-10T08:24:07.957Z,24.40
2022-08-10T08:24:37.045Z,25.70
2022-08-10T08:27:07.942Z,27.30
2022-08-10T08:29:38.826Z,28.30
2022-08-10T08:32:08.868Z,29.50
2022-08-10T08:34:43.797Z,30.10
2022-08-10T08:38:28.728Z,30.80
2022-08-10T08:40:05.757Z,31.80
2022-08-10T08:43:12.619Z,32.20
2022-08-10T08:46:01.396Z,32.80
2022-08-10T08:48:47.047Z,32.80
2022-08-10T08:52:07.796Z,33.00
2022-08-10T08:54:33.699Z,33.60
2022-08-10T08:57:07.276Z,33.90
2022-08-10T08:59:53.407Z,34.30
2022-08-10T09:02:36.094Z,34.50
2022-08-10T09:05:14.629Z,34.60
2022-08-10T09:08:24.235Z,35.00
2022-08-10T09:10:57.407Z,35.60
2022-08-10T09:13:31.679Z,35.50
2022-08-10T09:16:15.859Z,35.60
2022-08-10T09:18:50.847Z,35.90
2022-08-10T09:21:25.009Z,36.10
2022-08-10T09:24:06.323Z,36.70
2022-08-10T09:26:44.089Z,37.10
2022-08-10T09:29:17.037Z,36.90
2022-08-10T09:33:05.290Z,37.00
2022-08-10T09:36:23.501Z,37.50
2022-08-10T09:38:02.726Z,37.90
2022-08-10T09:40:59.900Z,37.90
2022-08-10T09:43:42.798Z,38.60
2022-08-10T09:46:22.118Z,39.20
2022-08-10T09:49:02.608Z,38.70
2022-08-10T09:51:45.401Z,38.70
2022-08-10T09:54:26.219Z,38.60
2022-08-10T09:57:41.637Z,38.70
2022-08-10T10:00:03.081Z,39.30
2022-08-10T10:02:43.369Z,39.90
2022-08-10T10:05:29.864Z,39.50
2022-08-10T10:08:07.570Z,39.20
2022-08-10T10:10:47.673Z,39.00
2022-08-10T10:13:41.497Z,39.80
2022-08-10T10:16:34.996Z,40.60
2022-08-10T10:19:17.505Z,40.90
2022-08-10T10:21:55.215Z,40.30
2022-08-10T10:24:34.532Z,40.40
2022-08-10T10:27:16.366Z,39.80
2022-08-10T10:29:56.724Z,39.20
2022-08-10T10:32:38.060Z,39.50
2022-08-10T10:35:17.449Z,39.80
2022-08-10T10:38:10.377Z,39.80
2022-08-10T10:40:56.475Z,39.70
2022-08-10T10:43:40.942Z,40.30
2022-08-10T10:46:22.989Z,40.80
2022-08-10T10:49:01.773Z,41.00
2022-08-10T10:51:34.615Z,40.40
2022-08-10T10:54:10.743Z,40.30
2022-08-10T10:56:51.203Z,40.40
2022-08-10T10:59:55.851Z,40.80
2022-08-10T11:02:32.687Z,40.70
2022-08-10T11:05:12.773Z,40.60
2022-08-10T11:07:53.439Z,40.60
2022-08-10T11:10:33.426Z,40.40
2022-08-10T11:14:28.535Z,40.90
2022-08-10T11:16:17.914Z,41.50
2022-08-10T11:19:04.854Z,41.00
2022-08-10T11:21:44.637Z,40.70
2022-08-10T11:24:46.816Z,40.50
2022-08-10T11:27:22.127Z,40.50
2022-08-10T11:30:00.296Z,40.90
2022-08-10T11:32:38.429Z,40.90
2022-08-10T11:35:20.703Z,40.80
2022-08-10T11:38:33.059Z,40.20
2022-08-10T11:40:54.568Z,39.90
2022-08-10T11:43:27.398Z,40.00
2022-08-10T11:46:07.849Z,40.20
2022-08-10T11:48:53.068Z,40.00
2022-08-10T11:51:31.620Z,40.40
2022-08-10T11:54:06.407Z,39.90
2022-08-10T11:56:45.985Z,39.80
2022-08-10T11:59:34.003Z,40.60
2022-08-10T12:02:04.063Z,39.60
2022-08-10T12:04:34.414Z,39.00
2022-08-10T12:10:02.499Z,38.30
2022-08-10T12:10:11.389Z,38.10
2022-08-10T12:12:47.605Z,38.70
2022-08-10T12:15:22.804Z,39.30
2022-08-10T12:17:56.274Z,39.60
2022-08-10T12:20:32.795Z,40.40
2022-08-10T12:23:11.965Z,41.20
2022-08-10T12:25:56.386Z,40.80
2022-08-10T12:28:50.065Z,41.20
2022-08-10T12:31:26.470Z,41.50
2022-08-10T12:34:07.945Z,41.10
2022-08-10T12:36:42.830Z,40.30
2022-08-10T12:39:18.607Z,40.10
2022-08-10T12:41:58.555Z,40.40
2022-08-10T12:44:41.649Z,40.20
2022-08-10T12:47:21.507Z,40.00
2022-08-10T12:50:13.662Z,39.40
2022-08-10T12:52:59.426Z,39.40
2022-08-10T12:55:40.512Z,39.30
2022-08-10T12:58:58.933Z,39.60
2022-08-10T13:01:16.013Z,39.90
2022-08-10T13:04:22.303Z,39.70
2022-08-10T13:06:41.867Z,39.30
2022-08-10T13:09:11.207Z,39.10
2022-08-10T13:12:36.296Z,39.30
2022-08-10T13:14:38.644Z,39.70
2022-08-10T13:17:09.516Z,39.90
2022-08-10T13:19:56.422Z,40.30
2022-08-10T13:22:30.507Z,40.80
2022-08-10T13:25:02.695Z,41.00
2022-08-10T13:28:01.069Z,41.10
2022-08-10T13:30:37.830Z,40.70
2022-08-10T13:33:08.679Z,41.10
2022-08-10T13:35:38.934Z,41.30
2022-08-10T13:38:10.504Z,40.90
2022-08-10T13:40:39.925Z,41.10
2022-08-10T13:43:11.660Z,41.10
2022-08-10T13:45:47.888Z,41.60
2022-08-10T13:48:21.814Z,41.90
2022-08-10T13:50:53.506Z,41.60
2022-08-10T13:53:23.325Z,41.30
2022-08-10T13:55:56.460Z,41.30
2022-08-10T13:58:31.332Z,41.20
2022-08-10T14:01:01.455Z,41.20
2022-08-10T14:03:35.594Z,41.00
2022-08-10T14:06:08.106Z,41.10
2022-08-10T14:08:39.524Z,41.20
2022-08-10T14:11:13.925Z,41.50
2022-08-10T14:13:47.446Z,41.30
2022-08-10T14:16:17.015Z,40.50
2022-08-10T14:18:46.424Z,40.30
2022-08-10T14:21:15.665Z,40.00
2022-08-10T14:23:52.808Z,40.10
2022-08-10T14:26:26.368Z,40.30
2022-08-10T14:28:59.535Z,39.60
2022-08-10T14:31:33.908Z,39.50
2022-08-10T14:34:08.439Z,39.60
2022-08-10T14:36:43.580Z,39.70
2022-08-10T14:39:21.581Z,39.60
2022-08-10T14:42:03.223Z,39.10
2022-08-10T14:44:48.609Z,38.60
2022-08-10T14:47:53.529Z,38.60
2022-08-10T14:50:32.567Z,39.00
2022-08-10T14:53:09.423Z,39.50
2022-08-10T14:55:59.121Z,39.40
2022-08-10T14:58:31.224Z,39.00
2022-08-10T15:01:02.350Z,38.50
2022-08-10T15:04:01.733Z,38.00
2022-08-10T15:06:30.789Z,38.00
2022-08-10T15:09:12.587Z,38.00
2022-08-10T15:12:15.627Z,37.40
2022-08-10T15:14:42.962Z,37.20
2022-08-10T15:17:17.293Z,37.10
2022-08-10T15:20:03.064Z,36.60
2022-08-10T15:22:38.656Z,36.40
2022-08-10T15:25:18.814Z,36.20
2022-08-10T15:27:54.921Z,36.00
2022-08-10T15:30:31.096Z,36.00
2022-08-10T15:34:02.866Z,35.60
2022-08-10T15:36:33.641Z,35.60
2022-08-10T15:39:05.500Z,35.50
2022-08-10T15:41:58.762Z,35.00
2022-08-10T15:44:38.732Z,34.60
2022-08-10T15:47:11.254Z,34.50
2022-08-10T15:49:51.807Z,34.50
2022-08-10T15:52:39.731Z,34.10
2022-08-10T15:55:42.363Z,33.80
2022-08-10T15:58:10.948Z,33.30
2022-08-10T16:00:41.429Z,33.20
2022-08-10T16:03:17.175Z,33.30
2022-08-10T16:06:02.225Z,33.20
2022-08-10T16:08:56.552Z,33.40
2022-08-10T16:11:38.617Z,33.20
2022-08-10T16:14:15.669Z,33.00
2022-08-10T16:16:51.065Z,32.60
2022-08-10T16:19:34.717Z,32.30
2022-08-10T16:22:35.431Z,32.40
2022-08-10T16:25:01.285Z,32.60
2022-08-10T16:27:36.129Z,32.60
2022-08-10T16:30:07.919Z,32.10
2022-08-10T16:32:38.722Z,31.50
2022-08-10T16:35:12.106Z,30.90
2022-08-10T16:37:57.908Z,30.50
2022-08-10T16:40:30.047Z,30.20
2022-08-10T16:43:04.417Z,29.90
2022-08-10T16:45:38.040Z,29.60
2022-08-10T16:48:10.081Z,29.30
2022-08-10T16:50:45.684Z,29.10
2022-08-10T16:53:19.755Z,29.00
2022-08-10T16:55:52.101Z,28.80
2022-08-10T16:58:27.768Z,28.70
2022-08-10T17:01:03.556Z,28.50
2022-08-10T17:04:08.683Z,28.40
2022-08-10T17:06:32.355Z,28.30
2022-08-10T17:09:05.147Z,28.00
2022-08-10T17:11:35.397Z,27.90
2022-08-10T17:14:09.286Z,27.80
2022-08-10T17:16:41.829Z,27.80
2022-08-10T17:19:16.043Z,27.60
2022-08-10T17:21:52.514Z,27.50
2022-08-10T17:24:27.882Z,27.40
2022-08-10T17:27:01.446Z,27.30
2022-08-10T17:30:03.491Z,27.20
2022-08-10T17:32:44.426Z,27.00
2022-08-10T17:35:23.221Z,26.90
2022-08-10T17:37:59.205Z,26.80
2022-08-10T17:40:33.552Z,26.60
2022-08-10T17:43:04.278Z,26.40
2022-08-10T17:45:47.605Z,26.40
2022-08-10T17:48:22.875Z,26.20
2022-08-10T17:50:54.393Z,26.20
2022-08-10T17:53:26.767Z,26.30
2022-08-10T17:55:59.115Z,26.30
2022-08-10T17:58:31.593Z,26.20
2022-08-10T18:01:38.246Z,26.10
2022-08-10T18:03:55.803Z,26.00
2022-08-10T18:06:25.435Z,25.90
2022-08-10T18:08:59.529Z,25.80
2022-08-10T18:11:32.953Z,25.80
2022-08-10T18:14:06.431Z,25.70
2022-08-10T18:16:36.110Z,25.70
2022-08-10T18:19:13.279Z,25.50
2022-08-10T18:21:46.300Z,25.50
2022-08-10T18:24:20.355Z,25.30
2022-08-10T18:26:54.223Z,25.20
2022-08-10T18:29:28.830Z,25.10
2022-08-10T18:32:03.342Z,25.00
2022-08-10T18:34:35.363Z,25.00
2022-08-10T18:37:07.720Z,24.80
2022-08-10T18:39:42.391Z,24.70
2022-08-10T18:42:16.342Z,24.60
2022-08-10T18:44:50.451Z,24.40
2022-08-10T18:47:27.281Z,24.20
2022-08-10T18:50:02.366Z,24.00
2022-08-10T18:52:35.630Z,23.90
2022-08-10T18:55:23.084Z,23.80
2022-08-10T18:58:12.584Z,23.70
2022-08-10T19:00:58.435Z,23.50
2022-08-10T19:03:56.726Z,23.40
2022-08-10T19:06:52.638Z,23.30
2022-08-10T19:09:47.679Z,23.20
2022-08-10T19:12:44.458Z,23.00
2022-08-10T19:15:40.456Z,22.90
2022-08-10T19:18:32.794Z,22.90
2022-08-10T19:21:12.145Z,22.90
2022-08-10T19:23:55.477Z,22.90
2022-08-10T19:26:43.683Z,22.80
2022-08-10T19:30:10.232Z,22.90
2022-08-10T19:32:27.874Z,22.80
2022-08-10T19:35:05.652Z,22.90
2022-08-10T19:38:00.769Z,22.90
2022-08-10T19:40:43.982Z,22.90
2022-08-10T19:43:59.890Z,22.80
2022-08-10T19:46:27.464Z,22.70
2022-08-10T19:49:04.973Z,22.60
2022-08-10T19:51:57.176Z,22.60
2022-08-10T19:54:35.280Z,22.70
2022-08-10T19:57:12.855Z,22.60
2022-08-10T20:00:15.706Z,22.60
2022-08-10T20:02:48.565Z,22.40
2022-08-10T20:05:31.392Z,22.40
2022-08-10T20:08:09.349Z,22.30
2022-08-10T20:10:46.945Z,22.30
2022-08-10T20:13:22.676Z,22.40
2022-08-10T20:15:59.695Z,22.40
2022-08-10T20:18:36.335Z,22.20
2022-08-10T20:21:13.791Z,22.20
2022-08-10T20:23:55.293Z,22.30
2022-08-10T20:26:26.526Z,22.30
2022-08-10T20:29:16.252Z,22.20
2022-08-10T20:31:57.956Z,22.10
2022-08-10T20:34:33.285Z,21.90
2022-08-10T20:37:07.515Z,21.80
2022-08-10T20:39:49.196Z,21.70
2022-08-10T20:42:23.378Z,21.70
2022-08-10T20:44:56.676Z,21.70
2022-08-10T20:47:57.444Z,21.80
2022-08-10T20:50:38.214Z,21.70
2022-08-10T20:53:12.795Z,21.70
2022-08-10T20:55:53.425Z,21.60
2022-08-10T20:58:53.008Z,21.50
2022-08-10T21:02:07.045Z,21.40
2022-08-10T21:04:44.911Z,21.40
2022-08-10T21:07:58.198Z,21.40
2022-08-10T21:10:33.083Z,21.30
2022-08-10T21:13:17.037Z,21.20
2022-08-10T21:15:59.602Z,21.10
2022-08-10T21:18:51.932Z,20.80
2022-08-10T21:21:58.977Z,20.50
2022-08-10T21:24:34.793Z,20.20
2022-08-10T21:27:15.744Z,20.00
2022-08-10T21:29:56.255Z,19.80
2022-08-10T21:32:36.629Z,19.70
2022-08-10T21:35:15.527Z,19.50
2022-08-10T21:37:58.705Z,19.50
2022-08-10T21:40:43.666Z,19.50
2022-08-10T21:44:01.167Z,19.40
2022-08-10T21:46:59.527Z,19.30
2022-08-10T21:49:57.479Z,19.30
2022-08-10T21:52:53.673Z,19.30
2022-08-10T21:55:57.546Z,19.30
2022-08-10T21:58:50.596Z,19.20
2022-08-10T22:01:45.426Z,19.10
2022-08-10T22:04:40.171Z,19.20
2022-08-10T22:07:36.775Z,19.20
2022-08-10T22:10:26.335Z,19.10
2022-08-10T22:13:17.186Z,19.10
2022-08-10T22:16:12.188Z,19.00
2022-08-10T22:19:03.936Z,18.90
2022-08-10T22:22:27.284Z,18.80
2022-08-10T22:25:29.821Z,18.70
2022-08-10T22:28:17.635Z,18.60
2022-08-10T22:31:30.152Z,18.40
2022-08-10T22:34:33.717Z,18.30
2022-08-10T22:37:36.356Z,18.10
2022-08-10T22:40:25.581Z,18.00
2022-08-10T22:43:15.709Z,17.90
2022-08-10T22:46:25.077Z,17.80
2022-08-10T22:49:01.613Z,17.70
2022-08-10T22:51:47.184Z,17.70
2022-08-10T22:54:38.516Z,17.60
2022-08-10T22:57:25.045Z,17.60
2022-08-10T22:59:53.815Z,17.60
2022-08-10T23:02:32.320Z,17.60
2022-08-10T23:05:08.200Z,17.50
2022-08-10T23:07:47.743Z,17.50
2022-08-10T23:10:19.904Z,17.50
2022-08-10T23:12:52.095Z,17.50
2022-08-10T23:15:44.097Z,17.40
2022-08-10T23:18:34.594Z,17.30
2022-08-10T23:21:04.134Z,17.20
2022-08-10T23:23:40.275Z,17.10
2022-08-10T23:26:12.801Z,17.10
2022-08-10T23:28:59.182Z,17.00
2022-08-10T23:31:57.638Z,17.00
2022-08-10T23:34:27.886Z,16.90
2022-08-10T23:36:59.774Z,16.80
2022-08-10T23:39:34.896Z,16.70
2022-08-10T23:42:07.918Z,16.60
2022-08-10T23:44:37.285Z,16.60
2022-08-10T23:47:07.014Z,16.50
2022-08-10T23:49:37.654Z,16.50
2022-08-10T23:52:13.295Z,16.40
2022-08-10T23:54:49.729Z,16.40
2022-08-10T23:57:21.615Z,16.40
